Seabulk Challenge — KNJL — position and weather

sailwx.info

Track history (hours):
 
Tides and Currents Weather Stations Pressure Air Temp Water Temp Dewpoint Dewpoint Depression Visibility Wind Speed Wind Dir Waves Ship Positions

Seabulk Challenge

Owner: Seabulk Tankers, Inc., Fort Lauderdale, FL. More information available from US FCC via Universal Licensing System and Coast Guard Vessel Documentation Center.

Last reported at 2016-Jul-31 04:33 UTC. Time now 2016-Jul-31 05:27 UTC.
Position N 39°59' W 075°06'.

Length 192 m; draft 11.5 m.

Type: Tanker. MMSI: 303104000.

Date/timePositionNaut miles runAvg speedWind from/ knotsBaromVisibWave heightAir tempDewpointWater temp
2016-Jul-31 04:33N 39°59' W 075°06'0 0.0
2016-Jul-31 03:33N 39°59' W 075°06'0 0.0
2016-Jul-31 02:33N 39°59' W 075°06'0 0.0
2016-Jul-31 01:33N 39°59' W 075°06'0 0.0
2016-Jul-31 00:33N 39°59' W 075°06'2 1.0
2016-Jul-30 22:33N 39°58' W 075°08'4 3.5
2016-Jul-30 21:34N 39°54' W 075°08'8 8.4
2016-Jul-30 20:33N 39°51' W 075°18'9 9.4
2016-Jul-30 19:34N 39°46' W 075°28'9 9.4
2016-Jul-30 18:34N 39°38' W 075°34'1111.2
2016-Jul-30 17:33N 39°27' W 075°33'1212.0
2016-Jul-30 16:34N 39°18' W 075°23'1212.2
2016-Jul-30 15:33N 39°08' W 075°14'1312.6
2016-Jul-30 14:34N 38°57' W 075°07'1111.3
2016-Jul-30 13:33N 38°46' W 075°00'6 6.1
2016-Jul-30 12:33N 38°42' W 074°55'5 4.4
2016-Jul-30 11:31N 38°39' W 074°51'8 8.8
2016-Jul-30 10:33N 38°32' W 074°44'9 9.4
2016-Jul-30 09:33N 38°24' W 074°39'2612.5
2016-Jul-30 07:29N 37°58' W 074°39'26615.5
2016-Jul-29 14:19N 33°42' W 076°07'1317.0
2016-Jul-29 13:34N 33°31' W 076°16'2215.9
2016-Jul-29 12:09N 33°13' W 076°32'12718.7
2016-Jul-29 05:23N 31°49' W 078°25'3217.6
2016-Jul-29 03:33N 31°29' W 078°53'3717.0
2016-Jul-29 01:24N 30°58' W 079°17'1516.7
2016-Jul-29 00:28N 30°44' W 079°24'25417.8
2016-Jul-28 10:11N 26°30' W 079°46'1218.8
2016-Jul-28 09:33N 26°19' W 079°47'1918.5
2016-Jul-28 08:33N 26°00' W 079°50'  
Track history (hours):
 
Tides and Currents Weather Stations Pressure Air Temp Water Temp Dewpoint Dewpoint Depression Visibility Wind Speed Wind Dir Waves Ship Positions

Seabulk Challenge

Owner: Seabulk Tankers, Inc., Fort Lauderdale, FL. More information available from US FCC via Universal Licensing System and Coast Guard Vessel Documentation Center.

Last reported at 2016-Jul-31 04:33 UTC. Time now 2016-Jul-31 05:27 UTC.
Position N 39°59' W 075°06'.

Length 192 m; draft 11.5 m.

Type: Tanker. MMSI: 303104000.

Date/timePositionNaut miles runAvg speedWind from/ knotsBaromVisibWave heightAir tempDewpointWater temp
2016-Jul-31 04:33N 39°59' W 075°06'0 0.0
2016-Jul-31 03:33N 39°59' W 075°06'0 0.0
2016-Jul-31 02:33N 39°59' W 075°06'0 0.0
2016-Jul-31 01:33N 39°59' W 075°06'0 0.0
2016-Jul-31 00:33N 39°59' W 075°06'2 1.0
2016-Jul-30 22:33N 39°58' W 075°08'4 3.5
2016-Jul-30 21:34N 39°54' W 075°08'8 8.4
2016-Jul-30 20:33N 39°51' W 075°18'9 9.4
2016-Jul-30 19:34N 39°46' W 075°28'9 9.4
2016-Jul-30 18:34N 39°38' W 075°34'1111.2
2016-Jul-30 17:33N 39°27' W 075°33'1212.0
2016-Jul-30 16:34N 39°18' W 075°23'1212.2
2016-Jul-30 15:33N 39°08' W 075°14'1312.6
2016-Jul-30 14:34N 38°57' W 075°07'1111.3
2016-Jul-30 13:33N 38°46' W 075°00'6 6.1
2016-Jul-30 12:33N 38°42' W 074°55'5 4.4
2016-Jul-30 11:31N 38°39' W 074°51'8 8.8
2016-Jul-30 10:33N 38°32' W 074°44'9 9.4
2016-Jul-30 09:33N 38°24' W 074°39'2612.5
2016-Jul-30 07:29N 37°58' W 074°39'26615.5
2016-Jul-29 14:19N 33°42' W 076°07'1317.0
2016-Jul-29 13:34N 33°31' W 076°16'2215.9
2016-Jul-29 12:09N 33°13' W 076°32'12718.7
2016-Jul-29 05:23N 31°49' W 078°25'3217.6
2016-Jul-29 03:33N 31°29' W 078°53'3717.0
2016-Jul-29 01:24N 30°58' W 079°17'1516.7
2016-Jul-29 00:28N 30°44' W 079°24'25417.8
2016-Jul-28 10:11N 26°30' W 079°46'1218.8
2016-Jul-28 09:33N 26°19' W 079°47'1918.5
2016-Jul-28 08:33N 26°00' W 079°50'  

Dump ship's entire track history